KRIV/RIV METAR and TAF weather

Enter ICAO airport designator
Station Type Date Time Source
KRIV METAR 2021/05/15 00:58 UTC NOAA

KRIV 150058Z AUTO 31011KT 10SM CLR 25/09 A2989 RMK AO2 SLP113 T02510090


Station Type Date Time Source
KRIV Decoded METAR 2021/05/15 00:58 UTC NOAA

Riverside / March Air Force Base, CA, United States (KRIV) 33-54N 117-15W 468M
May 14, 2021 - 08:58 PM EDT / 2021.05.15 0058 UTC
Wind: from the NW (310 degrees) at 13 MPH (11 KT):0
Visibility: 10 mile(s):0
Sky conditions: clear
Temperature: 77.2 F (25.1 C)
Dew Point: 48.2 F (9.0 C)
Relative Humidity: 36%
Pressure (altimeter): 29.89 in. Hg (1012 hPa)
ob: KRIV 150058Z AUTO 31011KT 10SM CLR 25/09 A2989 RMK AO2 SLP113 T02510090
cycle: 1

Station Type Date Time Source
KRIV TAF 2021/05/14 20:06 UTC NOAA

TAF KRIV 142002Z 1420/1602 31009KT 9999 SKC QNH2990INS
TEMPO 1422/1502 31012G20KT
BECMG 1502/1503 31006KT 9999 FEW250 510307 QNH2991INS
BECMG 1507/1508 VRB06KT 6000 BR OVC007 510307 QNH2992INS
BECMG 1517/1518 VRB06KT 9999 NSW BKN010 510208 QNH2992INS
BECMG 1518/1519 30006KT 9999 FEW012 510009 QNH2989INS
BECMG 1520/1521 31009KT 9999 FEW030 510009 QNH2985INS
TEMPO 1522/1602 31012G20KT TX26/1422Z TN11/1513Z

Example: see airport list